sensor_id;sensor_type;location;lat;lon;timestamp;temperature;humidity
2158;DHT22;41972;48.774;9.282;2023-06-19T00:00:08;23.40;30.30
2158;DHT22;41972;48.774;9.282;2023-06-19T00:02:42;23.40;31.80
2158;DHT22;41972;48.774;9.282;2023-06-19T00:05:08;23.40;30.70
2158;DHT22;41972;48.774;9.282;2023-06-19T00:07:38;23.40;31.20
2158;DHT22;41972;48.774;9.282;2023-06-19T00:10:04;23.40;30.60
2158;DHT22;41972;48.774;9.282;2023-06-19T00:12:30;23.30;31.70
2158;DHT22;41972;48.774;9.282;2023-06-19T00:14:56;23.30;33.20
2158;DHT22;41972;48.774;9.282;2023-06-19T00:17:22;23.30;32.50
2158;DHT22;41972;48.774;9.282;2023-06-19T00:19:47;23.30;32.20
2158;DHT22;41972;48.774;9.282;2023-06-19T00:22:14;23.30;31.50
2158;DHT22;41972;48.774;9.282;2023-06-19T00:24:40;23.30;32.20
2158;DHT22;41972;48.774;9.282;2023-06-19T00:27:06;23.30;34.80
2158;DHT22;41972;48.774;9.282;2023-06-19T00:29:33;23.20;33.60
2158;DHT22;41972;48.774;9.282;2023-06-19T00:31:59;23.20;36.40
2158;DHT22;41972;48.774;9.282;2023-06-19T00:34:25;23.20;35.70
2158;DHT22;41972;48.774;9.282;2023-06-19T00:36:53;23.30;35.90
2158;DHT22;41972;48.774;9.282;2023-06-19T00:39:23;23.30;35.60
2158;DHT22;41972;48.774;9.282;2023-06-19T00:41:51;23.30;34.60
2158;DHT22;41972;48.774;9.282;2023-06-19T00:44:17;23.40;35.30
2158;DHT22;41972;48.774;9.282;2023-06-19T00:46:42;23.30;34.60
2158;DHT22;41972;48.774;9.282;2023-06-19T00:49:08;23.30;37.60
2158;DHT22;41972;48.774;9.282;2023-06-19T00:51:34;23.30;35.40
2158;DHT22;41972;48.774;9.282;2023-06-19T00:54:00;23.30;38.00
2158;DHT22;41972;48.774;9.282;2023-06-19T00:56:26;23.30;37.20
2158;DHT22;41972;48.774;9.282;2023-06-19T00:58:53;23.30;36.70
2158;DHT22;41972;48.774;9.282;2023-06-19T01:01:19;23.40;37.40
2158;DHT22;41972;48.774;9.282;2023-06-19T01:03:46;23.20;40.10
2158;DHT22;41972;48.774;9.282;2023-06-19T01:06:20;23.20;38.40
2158;DHT22;41972;48.774;9.282;2023-06-19T01:08:56;23.30;38.60
2158;DHT22;41972;48.774;9.282;2023-06-19T01:11:28;23.20;39.90
2158;DHT22;41972;48.774;9.282;2023-06-19T01:14:09;23.20;38.60
2158;DHT22;41972;48.774;9.282;2023-06-19T01:16:36;23.10;42.30
2158;DHT22;41972;48.774;9.282;2023-06-19T01:19:04;23.20;40.00
2158;DHT22;41972;48.774;9.282;2023-06-19T01:21:32;23.20;40.50
2158;DHT22;41972;48.774;9.282;2023-06-19T01:23:58;23.20;42.40
2158;DHT22;41972;48.774;9.282;2023-06-19T01:26:23;23.30;39.60
2158;DHT22;41972;48.774;9.282;2023-06-19T01:28:53;23.30;41.80
2158;DHT22;41972;48.774;9.282;2023-06-19T01:31:35;23.10;42.70
2158;DHT22;41972;48.774;9.282;2023-06-19T01:34:03;23.10;41.40
2158;DHT22;41972;48.774;9.282;2023-06-19T01:36:29;23.20;39.30
2158;DHT22;41972;48.774;9.282;2023-06-19T01:38:57;23.20;39.40
2158;DHT22;41972;48.774;9.282;2023-06-19T01:41:24;23.20;37.80
2158;DHT22;41972;48.774;9.282;2023-06-19T01:43:51;23.10;36.50
2158;DHT22;41972;48.774;9.282;2023-06-19T01:46:17;23.10;36.10
2158;DHT22;41972;48.774;9.282;2023-06-19T01:48:43;23.20;36.30
2158;DHT22;41972;48.774;9.282;2023-06-19T01:51:09;23.10;36.20
2158;DHT22;41972;48.774;9.282;2023-06-19T01:53:35;23.10;37.00
2158;DHT22;41972;48.774;9.282;2023-06-19T01:56:01;23.00;37.40
2158;DHT22;41972;48.774;9.282;2023-06-19T01:58:26;23.00;38.10
2158;DHT22;41972;48.774;9.282;2023-06-19T02:00:52;22.90;39.80
2158;DHT22;41972;48.774;9.282;2023-06-19T02:03:18;22.70;41.50
2158;DHT22;41972;48.774;9.282;2023-06-19T02:05:44;22.50;43.20
2158;DHT22;41972;48.774;9.282;2023-06-19T02:08:09;22.50;42.90
2158;DHT22;41972;48.774;9.282;2023-06-19T02:10:35;22.40;43.10
2158;DHT22;41972;48.774;9.282;2023-06-19T02:13:00;22.40;46.20
2158;DHT22;41972;48.774;9.282;2023-06-19T02:15:26;22.30;47.10
2158;DHT22;41972;48.774;9.282;2023-06-19T02:17:57;22.30;50.30
2158;DHT22;41972;48.774;9.282;2023-06-19T02:20:24;22.10;52.10
2158;DHT22;41972;48.774;9.282;2023-06-19T02:22:50;22.20;56.20
2158;DHT22;41972;48.774;9.282;2023-06-19T02:25:16;22.10;57.10
2158;DHT22;41972;48.774;9.282;2023-06-19T02:27:41;21.70;64.50
2158;DHT22;41972;48.774;9.282;2023-06-19T02:30:07;21.80;67.50
2158;DHT22;41972;48.774;9.282;2023-06-19T02:32:33;21.70;73.20
2158;DHT22;41972;48.774;9.282;2023-06-19T02:34:59;21.30;87.30
2158;DHT22;41972;48.774;9.282;2023-06-19T02:37:24;21.00;92.60
2158;DHT22;41972;48.774;9.282;2023-06-19T02:39:50;21.00;96.00
2158;DHT22;41972;48.774;9.282;2023-06-19T02:42:15;20.90;97.50
2158;DHT22;41972;48.774;9.282;2023-06-19T02:44:41;20.60;99.90
2158;DHT22;41972;48.774;9.282;2023-06-19T02:47:07;20.60;99.90
2158;DHT22;41972;48.774;9.282;2023-06-19T02:49:33;20.80;99.90
2158;DHT22;41972;48.774;9.282;2023-06-19T02:51:59;20.90;99.90
2158;DHT22;41972;48.774;9.282;2023-06-19T02:54:24;20.80;99.90
2158;DHT22;41972;48.774;9.282;2023-06-19T02:56:50;20.90;99.90
2158;DHT22;41972;48.774;9.282;2023-06-19T02:59:15;21.10;99.90
2158;DHT22;41972;48.774;9.282;2023-06-19T03:01:41;21.20;99.90
2158;DHT22;41972;48.774;9.282;2023-06-19T03:04:06;21.30;99.90
2158;DHT22;41972;48.774;9.282;2023-06-19T03:06:32;21.40;99.90
2158;DHT22;41972;48.774;9.282;2023-06-19T03:09:04;21.10;99.90
2158;DHT22;41972;48.774;9.282;2023-06-19T03:11:30;21.30;99.90
2158;DHT22;41972;48.774;9.282;2023-06-19T03:13:56;21.40;99.90
2158;DHT22;41972;48.774;9.282;2023-06-19T03:16:22;21.40;99.90
2158;DHT22;41972;48.774;9.282;2023-06-19T03:18:47;21.50;99.90
2158;DHT22;41972;48.774;9.282;2023-06-19T03:21:14;21.50;99.90
2158;DHT22;41972;48.774;9.282;2023-06-19T03:23:40;21.40;99.90
2158;DHT22;41972;48.774;9.282;2023-06-19T03:26:09;21.40;99.90
2158;DHT22;41972;48.774;9.282;2023-06-19T03:28:38;21.50;99.90
2158;DHT22;41972;48.774;9.282;2023-06-19T03:31:03;21.50;99.90
2158;DHT22;41972;48.774;9.282;2023-06-19T03:33:29;21.50;99.90
2158;DHT22;41972;48.774;9.282;2023-06-19T03:35:55;21.50;99.90
2158;DHT22;41972;48.774;9.282;2023-06-19T03:38:20;21.60;99.90
2158;DHT22;41972;48.774;9.282;2023-06-19T03:40:46;21.50;99.90
2158;DHT22;41972;48.774;9.282;2023-06-19T03:43:11;21.40;99.90
2158;DHT22;41972;48.774;9.282;2023-06-19T03:45:37;21.40;99.90
2158;DHT22;41972;48.774;9.282;2023-06-19T03:48:03;21.40;99.90
2158;DHT22;41972;48.774;9.282;2023-06-19T03:50:29;21.30;99.90
2158;DHT22;41972;48.774;9.282;2023-06-19T03:52:54;21.30;99.90
2158;DHT22;41972;48.774;9.282;2023-06-19T03:55:20;21.30;99.90
2158;DHT22;41972;48.774;9.282;2023-06-19T03:57:45;21.30;99.90
2158;DHT22;41972;48.774;9.282;2023-06-19T04:00:11;21.20;99.90
2158;DHT22;41972;48.774;9.282;2023-06-19T04:02:39;20.70;99.90
2158;DHT22;41972;48.774;9.282;2023-06-19T04:05:05;20.70;99.90
2158;DHT22;41972;48.774;9.282;2023-06-19T04:07:31;20.50;99.90
2158;DHT22;41972;48.774;9.282;2023-06-19T04:09:57;20.30;99.90
2158;DHT22;41972;48.774;9.282;2023-06-19T04:12:23;20.30;99.90
2158;DHT22;41972;48.774;9.282;2023-06-19T04:14:49;20.10;99.90
2158;DHT22;41972;48.774;9.282;2023-06-19T04:17:14;20.30;99.90
2158;DHT22;41972;48.774;9.282;2023-06-19T04:19:41;20.50;99.90
2158;DHT22;41972;48.774;9.282;2023-06-19T04:22:07;20.60;99.90
2158;DHT22;41972;48.774;9.282;2023-06-19T04:24:32;20.60;99.90
2158;DHT22;41972;48.774;9.282;2023-06-19T04:26:58;20.80;99.90
2158;DHT22;41972;48.774;9.282;2023-06-19T04:29:24;20.90;99.90
2158;DHT22;41972;48.774;9.282;2023-06-19T04:31:49;20.80;99.90
2158;DHT22;41972;48.774;9.282;2023-06-19T04:34:16;20.60;99.90
2158;DHT22;41972;48.774;9.282;2023-06-19T04:36:42;20.60;99.90
2158;DHT22;41972;48.774;9.282;2023-06-19T04:39:08;20.70;99.90
2158;DHT22;41972;48.774;9.282;2023-06-19T04:41:34;20.90;99.90
2158;DHT22;41972;48.774;9.282;2023-06-19T04:44:00;21.20;99.90
2158;DHT22;41972;48.774;9.282;2023-06-19T04:46:28;21.40;99.90
2158;DHT22;41972;48.774;9.282;2023-06-19T04:48:53;21.50;99.90
2158;DHT22;41972;48.774;9.282;2023-06-19T04:51:20;21.50;99.90
2158;DHT22;41972;48.774;9.282;2023-06-19T04:53:47;21.40;99.90
2158;DHT22;41972;48.774;9.282;2023-06-19T04:56:14;21.40;99.90
2158;DHT22;41972;48.774;9.282;2023-06-19T04:58:40;21.10;99.90
2158;DHT22;41972;48.774;9.282;2023-06-19T05:01:14;21.40;99.90
2158;DHT22;41972;48.774;9.282;2023-06-19T05:03:40;21.70;99.90
2158;DHT22;41972;48.774;9.282;2023-06-19T05:06:07;22.20;99.90
2158;DHT22;41972;48.774;9.282;2023-06-19T05:08:32;22.10;99.90
2158;DHT22;41972;48.774;9.282;2023-06-19T05:10:58;22.50;99.90
2158;DHT22;41972;48.774;9.282;2023-06-19T05:13:24;23.10;99.90
2158;DHT22;41972;48.774;9.282;2023-06-19T05:15:49;23.10;99.90
2158;DHT22;41972;48.774;9.282;2023-06-19T05:18:16;25.00;99.90
2158;DHT22;41972;48.774;9.282;2023-06-19T05:20:42;25.10;99.90
2158;DHT22;41972;48.774;9.282;2023-06-19T05:23:07;26.10;99.90
2158;DHT22;41972;48.774;9.282;2023-06-19T05:25:33;25.00;99.90
2158;DHT22;41972;48.774;9.282;2023-06-19T05:27:59;24.90;99.90
2158;DHT22;41972;48.774;9.282;2023-06-19T05:30:24;24.30;99.90
2158;DHT22;41972;48.774;9.282;2023-06-19T05:32:50;23.90;99.90
2158;DHT22;41972;48.774;9.282;2023-06-19T05:35:16;24.10;99.90
2158;DHT22;41972;48.774;9.282;2023-06-19T05:37:41;23.20;99.90
2158;DHT22;41972;48.774;9.282;2023-06-19T05:40:09;22.90;99.90
2158;DHT22;41972;48.774;9.282;2023-06-19T05:42:35;22.80;99.90
2158;DHT22;41972;48.774;9.282;2023-06-19T05:45:02;23.00;99.90
2158;DHT22;41972;48.774;9.282;2023-06-19T05:47:28;23.10;99.90
2158;DHT22;41972;48.774;9.282;2023-06-19T05:49:54;23.00;99.90
2158;DHT22;41972;48.774;9.282;2023-06-19T05:52:23;23.30;99.90
2158;DHT22;41972;48.774;9.282;2023-06-19T05:54:50;23.70;99.90
2158;DHT22;41972;48.774;9.282;2023-06-19T05:57:15;23.30;99.90
2158;DHT22;41972;48.774;9.282;2023-06-19T05:59:43;23.00;99.90
2158;DHT22;41972;48.774;9.282;2023-06-19T06:02:08;23.80;99.90
2158;DHT22;41972;48.774;9.282;2023-06-19T06:04:34;24.30;99.90
2158;DHT22;41972;48.774;9.282;2023-06-19T06:07:00;24.40;99.90
2158;DHT22;41972;48.774;9.282;2023-06-19T06:09:26;24.80;99.90
2158;DHT22;41972;48.774;9.282;2023-06-19T06:11:52;25.10;99.90
2158;DHT22;41972;48.774;9.282;2023-06-19T06:14:18;25.00;99.90
2158;DHT22;41972;48.774;9.282;2023-06-19T06:16:44;24.70;99.90
2158;DHT22;41972;48.774;9.282;2023-06-19T06:19:09;24.70;99.90
2158;DHT22;41972;48.774;9.282;2023-06-19T06:21:35;25.20;99.90
2158;DHT22;41972;48.774;9.282;2023-06-19T06:24:01;25.60;99.90
2158;DHT22;41972;48.774;9.282;2023-06-19T06:26:26;25.00;99.90
2158;DHT22;41972;48.774;9.282;2023-06-19T06:28:53;24.90;99.90
2158;DHT22;41972;48.774;9.282;2023-06-19T06:31:19;25.00;99.90
2158;DHT22;41972;48.774;9.282;2023-06-19T06:33:44;25.70;99.90
2158;DHT22;41972;48.774;9.282;2023-06-19T06:36:10;25.80;99.90
2158;DHT22;41972;48.774;9.282;2023-06-19T06:38:36;25.90;99.90
2158;DHT22;41972;48.774;9.282;2023-06-19T06:41:02;27.20;99.90
2158;DHT22;41972;48.774;9.282;2023-06-19T06:43:27;25.60;99.90
2158;DHT22;41972;48.774;9.282;2023-06-19T06:45:53;26.00;99.90
2158;DHT22;41972;48.774;9.282;2023-06-19T06:48:19;26.90;99.90
2158;DHT22;41972;48.774;9.282;2023-06-19T06:50:46;28.60;99.90
2158;DHT22;41972;48.774;9.282;2023-06-19T06:53:11;29.60;99.90
2158;DHT22;41972;48.774;9.282;2023-06-19T06:55:37;30.20;68.20
2158;DHT22;41972;48.774;9.282;2023-06-19T06:58:02;29.30;60.20
2158;DHT22;41972;48.774;9.282;2023-06-19T07:00:28;28.80;58.30
2158;DHT22;41972;48.774;9.282;2023-06-19T07:02:54;27.80;72.00
2158;DHT22;41972;48.774;9.282;2023-06-19T07:05:20;30.00;60.00
2158;DHT22;41972;48.774;9.282;2023-06-19T07:07:45;31.00;60.50
2158;DHT22;41972;48.774;9.282;2023-06-19T07:10:11;33.00;47.60
2158;DHT22;41972;48.774;9.282;2023-06-19T07:12:47;33.30;38.00
2158;DHT22;41972;48.774;9.282;2023-06-19T07:15:13;32.50;33.90
2158;DHT22;41972;48.774;9.282;2023-06-19T07:17:39;30.50;33.90
2158;DHT22;41972;48.774;9.282;2023-06-19T07:20:05;27.80;43.00
2158;DHT22;41972;48.774;9.282;2023-06-19T07:22:31;27.30;48.10
2158;DHT22;41972;48.774;9.282;2023-06-19T07:24:57;25.60;59.70
2158;DHT22;41972;48.774;9.282;2023-06-19T07:27:23;25.70;72.00
2158;DHT22;41972;48.774;9.282;2023-06-19T07:29:53;25.20;72.50
2158;DHT22;41972;48.774;9.282;2023-06-19T07:32:18;24.90;79.30
2158;DHT22;41972;48.774;9.282;2023-06-19T07:34:45;24.90;84.40
2158;DHT22;41972;48.774;9.282;2023-06-19T07:37:11;25.70;83.40
2158;DHT22;41972;48.774;9.282;2023-06-19T07:39:46;26.70;77.30
2158;DHT22;41972;48.774;9.282;2023-06-19T07:42:13;27.90;70.10
2158;DHT22;41972;48.774;9.282;2023-06-19T07:44:39;27.90;64.00
2158;DHT22;41972;48.774;9.282;2023-06-19T07:47:05;29.70;48.30
2158;DHT22;41972;48.774;9.282;2023-06-19T07:49:30;30.60;48.80
2158;DHT22;41972;48.774;9.282;2023-06-19T07:51:56;29.60;39.50
2158;DHT22;41972;48.774;9.282;2023-06-19T07:54:21;32.20;36.40
2158;DHT22;41972;48.774;9.282;2023-06-19T07:56:47;33.10;28.00
2158;DHT22;41972;48.774;9.282;2023-06-19T07:59:12;34.10;27.00
2158;DHT22;41972;48.774;9.282;2023-06-19T08:01:39;34.60;14.90
2158;DHT22;41972;48.774;9.282;2023-06-19T08:04:05;32.30;19.90
2158;DHT22;41972;48.774;9.282;2023-06-19T08:06:31;32.00;18.20
2158;DHT22;41972;48.774;9.282;2023-06-19T08:08:57;32.80;21.90
2158;DHT22;41972;48.774;9.282;2023-06-19T08:11:23;35.30;13.00
2158;DHT22;41972;48.774;9.282;2023-06-19T08:13:49;35.40;11.40
2158;DHT22;41972;48.774;9.282;2023-06-19T08:16:14;35.60;7.80
2158;DHT22;41972;48.774;9.282;2023-06-19T08:18:40;36.60;3.30
2158;DHT22;41972;48.774;9.282;2023-06-19T08:21:05;35.60;1.00
2158;DHT22;41972;48.774;9.282;2023-06-19T08:23:31;35.70;1.00
2158;DHT22;41972;48.774;9.282;2023-06-19T08:25:57;32.40;2.20
2158;DHT22;41972;48.774;9.282;2023-06-19T08:28:22;30.70;4.70
2158;DHT22;41972;48.774;9.282;2023-06-19T08:30:49;30.20;6.50
2158;DHT22;41972;48.774;9.282;2023-06-19T08:33:14;30.20;6.60
2158;DHT22;41972;48.774;9.282;2023-06-19T08:35:40;30.10;8.70
2158;DHT22;41972;48.774;9.282;2023-06-19T08:38:05;29.60;11.60
2158;DHT22;41972;48.774;9.282;2023-06-19T08:40:32;29.50;14.20
2158;DHT22;41972;48.774;9.282;2023-06-19T08:42:58;28.80;13.80
2158;DHT22;41972;48.774;9.282;2023-06-19T08:45:26;28.90;15.20
2158;DHT22;41972;48.774;9.282;2023-06-19T08:48:01;28.80;15.40
2158;DHT22;41972;48.774;9.282;2023-06-19T08:50:32;29.20;15.70
2158;DHT22;41972;48.774;9.282;2023-06-19T08:52:58;29.80;14.30
2158;DHT22;41972;48.774;9.282;2023-06-19T08:55:24;29.70;14.50
2158;DHT22;41972;48.774;9.282;2023-06-19T08:57:50;30.80;13.80
2158;DHT22;41972;48.774;9.282;2023-06-19T09:00:27;33.80;7.70
2158;DHT22;41972;48.774;9.282;2023-06-19T09:03:00;34.80;5.20
2158;DHT22;41972;48.774;9.282;2023-06-19T09:05:27;34.50;1.70
2158;DHT22;41972;48.774;9.282;2023-06-19T09:07:59;35.80;1.00
2158;DHT22;41972;48.774;9.282;2023-06-19T09:10:26;35.60;1.00
2158;DHT22;41972;48.774;9.282;2023-06-19T09:13:01;37.50;1.00
2158;DHT22;41972;48.774;9.282;2023-06-19T09:15:32;36.20;1.00
2158;DHT22;41972;48.774;9.282;2023-06-19T09:18:11;34.90;1.00
2158;DHT22;41972;48.774;9.282;2023-06-19T09:20:40;34.90;1.00
2158;DHT22;41972;48.774;9.282;2023-06-19T09:23:10;36.00;1.00
2158;DHT22;41972;48.774;9.282;2023-06-19T09:25:49;36.40;1.00
2158;DHT22;41972;48.774;9.282;2023-06-19T09:28:23;36.10;1.00
2158;DHT22;41972;48.774;9.282;2023-06-19T09:31:00;36.20;1.00
2158;DHT22;41972;48.774;9.282;2023-06-19T09:33:28;36.30;1.00
2158;DHT22;41972;48.774;9.282;2023-06-19T09:35:55;37.90;1.00
2158;DHT22;41972;48.774;9.282;2023-06-19T09:38:24;37.20;1.00
2158;DHT22;41972;48.774;9.282;2023-06-19T09:40:52;38.40;1.00
2158;DHT22;41972;48.774;9.282;2023-06-19T09:43:25;36.90;1.00
2158;DHT22;41972;48.774;9.282;2023-06-19T09:45:55;38.20;1.00
2158;DHT22;41972;48.774;9.282;2023-06-19T09:48:27;37.00;1.00
2158;DHT22;41972;48.774;9.282;2023-06-19T09:50:58;34.20;1.00
2158;DHT22;41972;48.774;9.282;2023-06-19T09:53:25;32.20;1.00
2158;DHT22;41972;48.774;9.282;2023-06-19T09:55:51;31.30;1.00
2158;DHT22;41972;48.774;9.282;2023-06-19T09:58:19;30.50;1.00
2158;DHT22;41972;48.774;9.282;2023-06-19T10:00:46;30.30;1.00
2158;DHT22;41972;48.774;9.282;2023-06-19T10:03:13;30.80;1.00
2158;DHT22;41972;48.774;9.282;2023-06-19T10:05:39;32.30;1.00
2158;DHT22;41972;48.774;9.282;2023-06-19T10:08:06;33.00;1.00
2158;DHT22;41972;48.774;9.282;2023-06-19T10:10:33;32.90;1.00
2158;DHT22;41972;48.774;9.282;2023-06-19T10:13:11;32.50;1.00
2158;DHT22;41972;48.774;9.282;2023-06-19T10:15:40;33.40;1.00
2158;DHT22;41972;48.774;9.282;2023-06-19T10:18:09;33.80;1.00
2158;DHT22;41972;48.774;9.282;2023-06-19T10:20:38;34.50;1.00
2158;DHT22;41972;48.774;9.282;2023-06-19T10:23:06;31.90;1.00
2158;DHT22;41972;48.774;9.282;2023-06-19T10:25:37;31.00;1.00
2158;DHT22;41972;48.774;9.282;2023-06-19T10:28:03;32.50;1.00
2158;DHT22;41972;48.774;9.282;2023-06-19T10:30:32;31.90;1.00
2158;DHT22;41972;48.774;9.282;2023-06-19T10:32:59;33.10;1.00
2158;DHT22;41972;48.774;9.282;2023-06-19T10:35:29;33.10;1.00
2158;DHT22;41972;48.774;9.282;2023-06-19T10:38:07;33.70;1.00
2158;DHT22;41972;48.774;9.282;2023-06-19T10:40:33;34.10;1.00
2158;DHT22;41972;48.774;9.282;2023-06-19T10:42:58;34.60;1.00
2158;DHT22;41972;48.774;9.282;2023-06-19T10:45:24;36.90;1.00
2158;DHT22;41972;48.774;9.282;2023-06-19T10:47:54;36.90;1.00
2158;DHT22;41972;48.774;9.282;2023-06-19T10:50:21;34.10;1.00
2158;DHT22;41972;48.774;9.282;2023-06-19T10:52:46;34.50;1.00
2158;DHT22;41972;48.774;9.282;2023-06-19T10:55:14;34.10;1.00
2158;DHT22;41972;48.774;9.282;2023-06-19T10:57:43;34.00;1.00
2158;DHT22;41972;48.774;9.282;2023-06-19T11:00:10;35.10;1.00
2158;DHT22;41972;48.774;9.282;2023-06-19T11:02:40;33.60;1.00
2158;DHT22;41972;48.774;9.282;2023-06-19T11:05:09;34.00;1.00
2158;DHT22;41972;48.774;9.282;2023-06-19T11:07:34;33.40;1.00
2158;DHT22;41972;48.774;9.282;2023-06-19T11:10:00;32.10;1.00
2158;DHT22;41972;48.774;9.282;2023-06-19T11:12:26;31.80;1.00
2158;DHT22;41972;48.774;9.282;2023-06-19T11:14:51;30.90;1.00
2158;DHT22;41972;48.774;9.282;2023-06-19T11:17:17;30.60;1.00
2158;DHT22;41972;48.774;9.282;2023-06-19T11:19:50;30.20;1.00
2158;DHT22;41972;48.774;9.282;2023-06-19T11:22:16;29.80;1.00
2158;DHT22;41972;48.774;9.282;2023-06-19T11:24:47;28.10;2.60
2158;DHT22;41972;48.774;9.282;2023-06-19T11:27:22;28.40;5.10
2158;DHT22;41972;48.774;9.282;2023-06-19T11:29:57;29.00;3.90
2158;DHT22;41972;48.774;9.282;2023-06-19T11:32:38;30.00;1.70
2158;DHT22;41972;48.774;9.282;2023-06-19T11:35:11;30.20;2.10
2158;DHT22;41972;48.774;9.282;2023-06-19T11:37:41;30.50;1.60
2158;DHT22;41972;48.774;9.282;2023-06-19T11:40:08;31.00;1.60
2158;DHT22;41972;48.774;9.282;2023-06-19T11:42:49;30.60;3.90
2158;DHT22;41972;48.774;9.282;2023-06-19T11:45:16;30.60;3.30
2158;DHT22;41972;48.774;9.282;2023-06-19T11:47:46;31.40;1.00
2158;DHT22;41972;48.774;9.282;2023-06-19T11:50:13;30.20;2.00
2158;DHT22;41972;48.774;9.282;2023-06-19T11:52:39;30.40;2.00
2158;DHT22;41972;48.774;9.282;2023-06-19T11:55:05;30.30;2.00
2158;DHT22;41972;48.774;9.282;2023-06-19T11:57:31;29.80;3.10
2158;DHT22;41972;48.774;9.282;2023-06-19T11:59:58;30.10;2.10
2158;DHT22;41972;48.774;9.282;2023-06-19T12:02:24;30.30;3.10
2158;DHT22;41972;48.774;9.282;2023-06-19T12:04:49;30.10;3.00
2158;DHT22;41972;48.774;9.282;2023-06-19T12:07:15;30.00;2.90
2158;DHT22;41972;48.774;9.282;2023-06-19T12:09:41;30.30;3.50
2158;DHT22;41972;48.774;9.282;2023-06-19T12:12:09;30.70;2.60
2158;DHT22;41972;48.774;9.282;2023-06-19T12:14:34;29.80;3.20
2158;DHT22;41972;48.774;9.282;2023-06-19T12:17:00;29.70;7.40
2158;DHT22;41972;48.774;9.282;2023-06-19T12:19:26;30.00;5.00
2158;DHT22;41972;48.774;9.282;2023-06-19T12:21:53;29.60;5.40
2158;DHT22;41972;48.774;9.282;2023-06-19T12:24:18;29.80;6.20
2158;DHT22;41972;48.774;9.282;2023-06-19T12:26:44;29.50;5.40
2158;DHT22;41972;48.774;9.282;2023-06-19T12:29:10;30.20;4.00
2158;DHT22;41972;48.774;9.282;2023-06-19T12:31:35;30.60;4.30
2158;DHT22;41972;48.774;9.282;2023-06-19T12:34:02;30.60;6.40
2158;DHT22;41972;48.774;9.282;2023-06-19T12:36:28;29.80;3.70
2158;DHT22;41972;48.774;9.282;2023-06-19T12:38:54;29.10;4.80
2158;DHT22;41972;48.774;9.282;2023-06-19T12:41:39;29.00;6.00
2158;DHT22;41972;48.774;9.282;2023-06-19T12:44:05;28.90;5.80
2158;DHT22;41972;48.774;9.282;2023-06-19T12:46:30;28.90;6.50
2158;DHT22;41972;48.774;9.282;2023-06-19T12:48:57;29.20;6.90
2158;DHT22;41972;48.774;9.282;2023-06-19T12:51:23;29.60;5.60
2158;DHT22;41972;48.774;9.282;2023-06-19T12:53:48;29.20;9.00
2158;DHT22;41972;48.774;9.282;2023-06-19T12:56:14;29.70;5.80
2158;DHT22;41972;48.774;9.282;2023-06-19T12:58:39;30.00;4.90
2158;DHT22;41972;48.774;9.282;2023-06-19T13:01:05;29.50;3.90
2158;DHT22;41972;48.774;9.282;2023-06-19T13:03:30;29.30;5.90
2158;DHT22;41972;48.774;9.282;2023-06-19T13:05:56;29.90;7.30
2158;DHT22;41972;48.774;9.282;2023-06-19T13:08:21;30.10;5.00
2158;DHT22;41972;48.774;9.282;2023-06-19T13:10:47;29.90;6.50
2158;DHT22;41972;48.774;9.282;2023-06-19T13:13:13;30.30;6.00
2158;DHT22;41972;48.774;9.282;2023-06-19T13:15:38;30.40;6.00
2158;DHT22;41972;48.774;9.282;2023-06-19T13:18:04;30.50;3.30
2158;DHT22;41972;48.774;9.282;2023-06-19T13:20:29;30.30;5.10
2158;DHT22;41972;48.774;9.282;2023-06-19T13:22:55;30.10;4.40
2158;DHT22;41972;48.774;9.282;2023-06-19T13:25:20;30.10;3.50
2158;DHT22;41972;48.774;9.282;2023-06-19T13:27:46;30.30;5.10
2158;DHT22;41972;48.774;9.282;2023-06-19T13:30:12;30.70;3.30
2158;DHT22;41972;48.774;9.282;2023-06-19T13:32:38;29.10;2.80
2158;DHT22;41972;48.774;9.282;2023-06-19T13:35:05;29.70;3.50
2158;DHT22;41972;48.774;9.282;2023-06-19T13:37:30;29.70;4.60
2158;DHT22;41972;48.774;9.282;2023-06-19T13:39:56;30.00;4.40
2158;DHT22;41972;48.774;9.282;2023-06-19T13:42:22;29.60;6.00
2158;DHT22;41972;48.774;9.282;2023-06-19T13:44:48;29.80;4.80
2158;DHT22;41972;48.774;9.282;2023-06-19T13:47:13;29.60;4.50
2158;DHT22;41972;48.774;9.282;2023-06-19T13:49:39;29.80;5.50
2158;DHT22;41972;48.774;9.282;2023-06-19T13:52:05;29.70;4.00
2158;DHT22;41972;48.774;9.282;2023-06-19T13:54:31;28.90;4.10
2158;DHT22;41972;48.774;9.282;2023-06-19T13:56:56;29.20;4.80
2158;DHT22;41972;48.774;9.282;2023-06-19T13:59:22;28.90;5.00
2158;DHT22;41972;48.774;9.282;2023-06-19T14:01:47;29.30;6.40
2158;DHT22;41972;48.774;9.282;2023-06-19T14:04:13;29.50;4.30
2158;DHT22;41972;48.774;9.282;2023-06-19T14:06:39;29.50;3.80
2158;DHT22;41972;48.774;9.282;2023-06-19T14:09:08;29.40;4.20
2158;DHT22;41972;48.774;9.282;2023-06-19T14:11:33;29.70;3.20
2158;DHT22;41972;48.774;9.282;2023-06-19T14:13:59;29.80;2.60
2158;DHT22;41972;48.774;9.282;2023-06-19T14:16:24;29.50;3.50
2158;DHT22;41972;48.774;9.282;2023-06-19T14:18:50;29.60;2.80
2158;DHT22;41972;48.774;9.282;2023-06-19T14:21:15;29.00;3.50
2158;DHT22;41972;48.774;9.282;2023-06-19T14:23:41;29.00;3.70
2158;DHT22;41972;48.774;9.282;2023-06-19T14:26:11;29.30;3.40
2158;DHT22;41972;48.774;9.282;2023-06-19T14:28:37;29.20;2.80
2158;DHT22;41972;48.774;9.282;2023-06-19T14:31:05;29.40;3.30
2158;DHT22;41972;48.774;9.282;2023-06-19T14:33:31;29.00;3.40
2158;DHT22;41972;48.774;9.282;2023-06-19T14:35:59;29.20;3.70
2158;DHT22;41972;48.774;9.282;2023-06-19T14:38:25;29.20;3.20
2158;DHT22;41972;48.774;9.282;2023-06-19T14:40:53;29.20;3.80
2158;DHT22;41972;48.774;9.282;2023-06-19T14:43:19;29.40;3.20
2158;DHT22;41972;48.774;9.282;2023-06-19T14:45:44;29.40;3.60
2158;DHT22;41972;48.774;9.282;2023-06-19T14:48:10;29.50;3.40
2158;DHT22;41972;48.774;9.282;2023-06-19T14:50:35;29.60;3.20
2158;DHT22;41972;48.774;9.282;2023-06-19T14:53:01;29.50;2.80
2158;DHT22;41972;48.774;9.282;2023-06-19T14:55:27;29.40;3.40
2158;DHT22;41972;48.774;9.282;2023-06-19T14:57:52;29.50;4.70
2158;DHT22;41972;48.774;9.282;2023-06-19T15:00:18;29.50;4.60
2158;DHT22;41972;48.774;9.282;2023-06-19T15:02:43;29.40;4.50
2158;DHT22;41972;48.774;9.282;2023-06-19T15:05:09;29.40;6.20
2158;DHT22;41972;48.774;9.282;2023-06-19T15:07:34;29.70;4.50
2158;DHT22;41972;48.774;9.282;2023-06-19T15:10:00;29.80;3.20
2158;DHT22;41972;48.774;9.282;2023-06-19T15:12:25;30.20;3.00
2158;DHT22;41972;48.774;9.282;2023-06-19T15:14:51;30.40;4.50
2158;DHT22;41972;48.774;9.282;2023-06-19T15:17:17;29.70;4.00
2158;DHT22;41972;48.774;9.282;2023-06-19T15:19:42;29.70;5.00
2158;DHT22;41972;48.774;9.282;2023-06-19T15:22:08;29.70;5.60
2158;DHT22;41972;48.774;9.282;2023-06-19T15:24:33;30.00;4.40
2158;DHT22;41972;48.774;9.282;2023-06-19T15:26:59;30.30;3.80
2158;DHT22;41972;48.774;9.282;2023-06-19T15:29:26;30.40;3.60
2158;DHT22;41972;48.774;9.282;2023-06-19T15:31:51;30.40;3.70
2158;DHT22;41972;48.774;9.282;2023-06-19T15:34:17;29.90;5.60
2158;DHT22;41972;48.774;9.282;2023-06-19T15:36:43;30.00;4.00
2158;DHT22;41972;48.774;9.282;2023-06-19T15:39:08;29.80;3.00
2158;DHT22;41972;48.774;9.282;2023-06-19T15:41:34;29.70;3.40
2158;DHT22;41972;48.774;9.282;2023-06-19T15:44:00;29.40;3.60
2158;DHT22;41972;48.774;9.282;2023-06-19T15:46:25;29.50;3.90
2158;DHT22;41972;48.774;9.282;2023-06-19T15:48:51;29.70;3.10